Time;durP1;ratioP1;P1;durP2;ratioP2;P2;SDS_P1;SDS_P2;PMS_P1;PMS_P2;Temp;Humidity;BMP_temperature;BMP_pressure;BME280_temperature;BME280_humidity;BME280_pressure;Samples;Min_cycle;Max_cycle;Signal;HPM_P1;HPM_P2
2023/10/17 00:02:51;;;;;;;3.45;2.65;;;25.00;51.00;;;;;;5059976;28;20097;-73
2023/10/17 00:05:20;;;;;;;5.35;3.00;;;25.00;51.00;;;;;;5094653;28;20043;-72
2023/10/17 00:07:46;;;;;;;3.92;2.60;;;25.00;51.00;;;;;;5094357;28;20039;-72
2023/10/17 00:10:18;;;;;;;2.78;2.50;;;25.00;51.00;;;;;;5093845;28;20074;-72
2023/10/17 00:12:46;;;;;;;3.95;3.05;;;24.90;51.00;;;;;;5093897;28;20050;-71
2023/10/17 00:15:28;;;;;;;4.65;2.83;;;24.80;50.90;;;;;;5112343;28;20027;-73
2023/10/17 00:20:53;;;;;;;4.82;3.33;;;24.90;51.00;;;;;;5049471;28;20160;-73
2023/10/17 00:23:22;;;;;;;6.60;2.95;;;24.90;51.10;;;;;;5049056;28;20064;-71
2023/10/17 00:25:52;;;;;;;7.35;3.05;;;24.90;51.10;;;;;;5048896;28;20076;-72
2023/10/17 00:28:22;;;;;;;5.82;3.30;;;24.90;51.10;;;;;;5032513;28;20183;-72
2023/10/17 00:30:51;;;;;;;6.55;3.72;;;24.80;51.10;;;;;;5032430;28;20508;-72
2023/10/17 00:33:20;;;;;;;3.97;2.28;;;24.90;51.10;;;;;;5016771;28;20477;-72
2023/10/17 00:35:49;;;;;;;4.95;2.85;;;24.80;51.00;;;;;;5049374;28;20059;-71
2023/10/17 00:38:15;;;;;;;6.20;2.90;;;24.80;50.90;;;;;;5049178;28;20076;-72
2023/10/17 00:43:12;;;;;;;4.05;2.67;;;24.90;50.90;;;;;;5016174;28;20071;-71
2023/10/17 00:45:38;;;;;;;7.43;3.10;;;24.80;50.80;;;;;;5015921;28;20032;-71
2023/10/17 00:48:17;;;;;;;4.45;2.45;;;24.90;50.90;;;;;;5032233;28;20049;-73
2023/10/17 00:50:48;;;;;;;4.97;2.90;;;24.80;50.80;;;;;;5015667;28;20059;-72
2023/10/17 00:53:15;;;;;;;3.65;2.88;;;24.80;50.80;;;;;;5013834;28;20029;-71
2023/10/17 00:55:50;;;;;;;3.72;2.70;;;24.70;50.70;;;;;;5020056;28;20029;-72
2023/10/17 00:58:24;;;;;;;3.10;2.40;;;24.90;50.80;;;;;;5060048;28;20043;-72
2023/10/17 01:00:58;;;;;;;2.78;2.30;;;24.90;50.80;;;;;;5098202;28;20040;-72
2023/10/17 01:03:25;;;;;;;5.07;2.67;;;24.70;50.60;;;;;;5097949;28;20059;-73
2023/10/17 01:06:13;;;;;;;4.28;3.30;;;24.80;50.60;;;;;;5097647;28;20056;-72
2023/10/17 01:08:44;;;;;;;6.93;3.17;;;24.80;50.60;;;;;;5094241;28;20032;-72
2023/10/17 01:11:20;;;;;;;5.80;2.83;;;24.80;50.70;;;;;;5097415;28;20032;-73
2023/10/17 01:13:49;;;;;;;3.55;2.72;;;24.80;50.70;;;;;;5116056;28;20062;-72
2023/10/17 01:16:16;;;;;;;4.05;3.08;;;24.80;50.70;;;;;;5115999;28;20031;-73
2023/10/17 01:18:45;;;;;;;9.60;3.42;;;24.70;50.80;;;;;;5081304;28;20039;-72
2023/10/17 01:21:13;;;;;;;3.25;2.90;;;24.80;50.80;;;;;;5072438;28;20044;-72
2023/10/17 01:23:40;;;;;;;2.85;2.53;;;24.70;50.80;;;;;;5072493;28;20048;-72
2023/10/17 01:26:14;;;;;;;3.40;2.40;;;24.60;50.70;;;;;;5055775;28;20053;-72
2023/10/17 01:28:45;;;;;;;4.10;2.78;;;24.70;50.80;;;;;;5055949;28;20048;-71
2023/10/17 01:31:14;;;;;;;3.47;2.58;;;24.70;50.70;;;;;;5072279;28;20040;-72
2023/10/17 01:33:43;;;;;;;3.97;2.10;;;24.70;50.70;;;;;;5072223;28;20098;-73
2023/10/17 01:36:13;;;;;;;3.22;2.85;;;24.70;50.70;;;;;;5071014;28;20129;-72
2023/10/17 01:38:42;;;;;;;5.20;2.47;;;24.70;50.60;;;;;;5038904;28;20052;-72
2023/10/17 01:41:10;;;;;;;5.22;2.45;;;24.80;50.60;;;;;;5072119;28;20040;-71
2023/10/17 01:43:40;;;;;;;4.88;2.53;;;24.70;50.50;;;;;;5055572;28;20408;-72
2023/10/17 01:46:14;;;;;;;3.30;2.67;;;24.70;50.50;;;;;;5072154;28;20049;-73
2023/10/17 01:48:44;;;;;;;6.32;2.70;;;24.80;50.50;;;;;;5055496;28;20528;-72
2023/10/17 01:51:12;;;;;;;4.07;2.35;;;24.70;50.40;;;;;;5075731;28;20036;-72
2023/10/17 01:53:39;;;;;;;4.32;2.58;;;24.70;50.40;;;;;;5115509;28;20106;-72
2023/10/17 01:56:09;;;;;;;5.95;2.90;;;24.70;50.40;;;;;;5097004;28;20027;-72
2023/10/17 01:58:38;;;;;;;4.78;2.85;;;24.70;50.30;;;;;;5045495;28;20032;-72
2023/10/17 02:01:11;;;;;;;5.93;3.25;;;24.70;50.30;;;;;;5096697;28;20035;-71
2023/10/17 02:03:37;;;;;;;4.32;2.60;;;24.70;50.30;;;;;;5114756;28;20028;-72
2023/10/17 02:06:14;;;;;;;2.97;2.58;;;24.70;50.30;;;;;;5113896;28;20101;-72
2023/10/17 02:08:46;;;;;;;6.90;2.80;;;24.50;50.30;;;;;;5096679;28;20043;-73
2023/10/17 02:11:32;;;;;;;7.88;3.00;;;24.70;50.40;;;;;;5079820;28;20385;-73
2023/10/17 02:13:59;;;;;;;4.38;2.60;;;24.70;50.40;;;;;;5115217;28;20387;-72
2023/10/17 02:16:29;;;;;;;6.18;2.95;;;24.50;50.30;;;;;;5114964;28;20035;-72
2023/10/17 02:18:56;;;;;;;3.15;2.70;;;24.60;50.40;;;;;;5096337;28;20395;-72
2023/10/17 02:21:22;;;;;;;3.70;2.33;;;24.60;50.40;;;;;;5096391;28;20471;-73
2023/10/17 02:23:51;;;;;;;4.40;2.95;;;24.60;50.40;;;;;;5096102;28;20032;-73
2023/10/17 02:26:22;;;;;;;4.53;2.72;;;24.50;50.40;;;;;;5114520;28;20043;-72
2023/10/17 02:28:59;;;;;;;5.55;2.63;;;24.50;50.40;;;;;;5114579;28;20064;-73
2023/10/17 02:31:29;;;;;;;6.30;2.90;;;24.40;50.20;;;;;;5114378;28;20032;-72
2023/10/17 02:33:56;;;;;;;3.22;2.53;;;24.60;50.30;;;;;;5078985;28;20050;-72
2023/10/17 02:36:23;;;;;;;5.05;2.88;;;24.60;50.20;;;;;;5096027;28;20039;-71
2023/10/17 02:38:51;;;;;;;5.30;2.95;;;24.50;50.20;;;;;;5078870;28;20036;-72
2023/10/17 02:41:22;;;;;;;3.05;2.40;;;24.50;50.20;;;;;;5114154;28;20467;-73
2023/10/17 02:43:54;;;;;;;5.88;2.63;;;24.50;50.10;;;;;;5096016;28;20038;-72
2023/10/17 02:46:26;;;;;;;5.50;2.95;;;24.50;50.10;;;;;;5099013;28;20036;-72
2023/10/17 02:48:53;;;;;;;5.00;2.95;;;24.60;50.00;;;;;;5075535;28;20081;-72
2023/10/17 02:53:56;;;;;;;4.75;2.78;;;24.60;50.00;;;;;;5075173;28;20040;-71
2023/10/17 02:56:26;;;;;;;4.68;3.05;;;24.60;49.90;;;;;;5058493;28;20119;-72
2023/10/17 02:59:04;;;;;;;4.03;2.67;;;24.50;50.00;;;;;;5093365;28;20071;-71
2023/10/17 03:01:31;;;;;;;3.85;2.70;;;24.60;50.00;;;;;;5092964;28;20036;-73
2023/10/17 03:04:09;;;;;;;7.97;3.67;;;24.60;50.00;;;;;;5059369;28;20036;-71
2023/10/17 03:06:44;;;;;;;6.65;2.90;;;24.50;50.00;;;;;;5078521;28;20028;-73
2023/10/17 03:09:16;;;;;;;6.43;3.70;;;24.50;50.00;;;;;;5093393;28;20085;-72
2023/10/17 03:15:18;;;;;;;5.95;3.47;;;24.50;50.00;;;;;;5092965;28;20479;-73
2023/10/17 03:17:32;;;;;;;3.55;2.88;;;24.50;50.00;;;;;;5093025;28;20115;-72
2023/10/17 03:19:58;;;;;;;4.13;2.88;;;24.40;49.90;;;;;;5093333;28;20075;-72
2023/10/17 03:22:27;;;;;;;7.35;3.33;;;24.40;49.90;;;;;;5058278;28;20039;-72
2023/10/17 03:25:09;;;;;;;9.27;3.78;;;24.30;49.90;;;;;;5074485;28;20051;-72
2023/10/17 03:27:38;;;;;;;6.18;2.92;;;24.50;50.00;;;;;;5074546;28;20040;-72
2023/10/17 03:30:10;;;;;;;5.40;3.67;;;24.50;49.90;;;;;;5093279;28;20028;-73
2023/10/17 03:32:52;;;;;;;3.30;2.55;;;24.40;49.80;;;;;;5083845;28;20403;-73
2023/10/17 03:35:21;;;;;;;5.35;2.60;;;24.50;49.80;;;;;;5094878;28;20423;-73
2023/10/17 03:37:49;;;;;;;3.92;2.67;;;24.50;49.80;;;;;;5078163;28;20039;-72
2023/10/17 03:40:17;;;;;;;2.95;2.60;;;24.50;49.80;;;;;;5095135;28;20433;-72
2023/10/17 03:42:45;;;;;;;3.15;2.22;;;24.50;49.80;;;;;;5112756;28;20054;-73
2023/10/17 03:45:16;;;;;;;4.03;2.45;;;24.50;49.70;;;;;;5077922;28;20110;-72
2023/10/17 03:48:13;;;;;;;3.47;2.45;;;24.50;49.70;;;;;;5112745;28;20047;-73
2023/10/17 03:53:15;;;;;;;5.25;2.97;;;24.40;49.50;;;;;;5112744;28;20082;-74
2023/10/17 03:55:48;;;;;;;5.40;2.80;;;24.40;49.50;;;;;;5113074;28;20039;-73
2023/10/17 04:01:09;;;;;;;4.88;2.80;;;24.30;49.60;;;;;;5049712;28;20040;-72
2023/10/17 04:03:36;;;;;;;4.32;2.95;;;24.50;49.80;;;;;;5033175;28;20119;-72
2023/10/17 04:06:18;;;;;;;3.42;2.60;;;24.50;49.80;;;;;;5033181;28;20060;-72
2023/10/17 04:08:56;;;;;;;1.98;1.48;;;24.50;49.80;;;;;;5049978;28;20540;-75
2023/10/17 04:13:51;;;;;;;3.67;1.98;;;25.10;53.50;;;;;;5049644;28;20035;-74
2023/10/17 04:16:39;;;;;;;2.92;1.90;;;25.30;49.80;;;;;;5032771;28;20112;-71
2023/10/17 04:19:08;;;;;;;2.13;1.73;;;25.40;51.60;;;;;;5049743;28;20047;-74
2023/10/17 04:21:45;;;;;;;2.20;2.00;;;25.30;47.40;;;;;;5049263;28;20132;-73
2023/10/17 04:24:13;;;;;;;3.38;2.20;;;25.10;46.20;;;;;;5049412;28;20053;-70
2023/10/17 04:26:45;;;;;;;2.80;1.90;;;25.00;45.10;;;;;;5032532;28;20401;-71
2023/10/17 04:29:11;;;;;;;3.05;2.10;;;25.00;43.90;;;;;;5032656;28;20040;-72
2023/10/17 04:31:43;;;;;;;3.55;1.88;;;25.00;42.90;;;;;;5032432;28;20047;-70
2023/10/17 04:34:14;;;;;;;4.83;3.40;;;24.80;42.30;;;;;;5015806;28;20072;-71
2023/10/17 04:36:41;;;;;;;5.97;2.80;;;24.90;42.00;;;;;;5048693;28;20033;-70
2023/10/17 04:39:25;;;;;;;4.22;3.53;;;24.70;42.00;;;;;;5107581;28;20062;-72
2023/10/17 04:44:25;;;;;;;5.38;3.45;;;24.70;42.60;;;;;;5093461;28;20058;-71
2023/10/17 04:49:31;;;;;;;7.05;3.95;;;24.70;43.70;;;;;;5108247;28;20386;-70
2023/10/17 04:52:06;;;;;;;4.68;3.35;;;24.80;44.10;;;;;;5111515;28;20024;-70
2023/10/17 04:57:04;;;;;;;8.50;3.20;;;24.70;45.10;;;;;;5111632;28;20107;-73
2023/10/17 05:07:50;;;;;;;4.13;2.17;;;24.60;46.30;;;;;;5093061;28;20070;-72
2023/10/17 06:18:56;;;;;;;18.60;5.88;;;24.90;50.50;;;;;;5114208;28;20036;-75
2023/10/17 06:21:36;;;;;;;9.63;5.35;;;24.80;50.60;;;;;;5063187;28;20253;-71
2023/10/17 06:26:47;;;;;;;13.65;5.05;;;24.60;50.50;;;;;;5068792;28;20041;-70
2023/10/17 06:34:16;;;;;;;13.63;4.68;;;24.60;50.90;;;;;;5054384;28;20025;-67
2023/10/17 06:36:43;;;;;;;12.52;4.60;;;24.60;50.70;;;;;;5070146;28;20131;-71
2023/10/17 06:39:24;;;;;;;7.20;4.55;;;24.50;50.60;;;;;;5054027;28;20641;-72
2023/10/17 06:41:58;;;;;;;10.98;4.80;;;24.60;50.80;;;;;;5061504;28;20041;-72
2023/10/17 06:44:26;;;;;;;11.30;5.07;;;24.60;51.00;;;;;;5054379;28;20044;-72
2023/10/17 06:54:58;;;;;;;10.83;5.13;;;24.70;51.20;;;;;;5075025;28;20418;-69
2023/10/17 06:57:24;;;;;;;11.65;5.18;;;24.70;51.40;;;;;;5092968;28;20062;-69
2023/10/17 06:59:53;;;;;;;13.15;4.90;;;24.80;51.60;;;;;;5093055;28;20024;-70
2023/10/17 07:02:29;;;;;;;8.60;4.97;;;24.70;51.70;;;;;;5092817;28;20054;-72
2023/10/17 07:05:01;;;;;;;15.35;4.72;;;24.70;51.70;;;;;;5092870;28;20463;-70
2023/10/17 07:07:40;;;;;;;7.45;4.28;;;24.60;51.70;;;;;;5092486;28;20525;-71
2023/10/17 07:10:16;;;;;;;7.38;3.45;;;24.70;51.90;;;;;;5092952;28;20035;-71
2023/10/17 07:12:47;;;;;;;14.35;3.75;;;24.70;51.80;;;;;;5092744;28;20479;-69
2023/10/17 07:15:20;;;;;;;18.85;5.05;;;24.70;52.00;;;;;;5074396;28;20375;-70
2023/10/17 07:17:54;;;;;;;;;;;24.80;52.60;;;;;;5057848;28;20481;-69
2023/10/17 07:23:15;;;;;;;15.23;4.90;;;24.60;52.80;;;;;;5076756;28;19989;-71
2023/10/17 07:25:43;;;;;;;12.73;4.53;;;24.60;52.90;;;;;;5059772;28;20118;-70
2023/10/17 07:28:10;;;;;;;7.95;4.88;;;24.70;53.40;;;;;;5069865;28;20424;-71
2023/10/17 07:30:48;;;;;;;9.13;5.03;;;24.70;53.50;;;;;;5055306;28;20045;-70
2023/10/17 07:33:18;;;;;;;9.55;4.93;;;24.80;53.60;;;;;;5049726;28;20134;-73
2023/10/17 07:35:44;;;;;;;6.00;4.20;;;24.70;53.60;;;;;;5049490;28;20037;-69
2023/10/17 07:38:14;;;;;;;9.27;4.47;;;24.70;53.90;;;;;;5049523;28;20047;-72
2023/10/17 07:43:09;;;;;;;4.30;3.45;;;24.60;53.90;;;;;;5049806;28;20135;-74
2023/10/17 07:45:41;;;;;;;7.50;3.45;;;24.70;54.00;;;;;;5049638;28;20044;-74
2023/10/17 07:48:25;;;;;;;3.88;2.60;;;24.50;53.80;;;;;;5049727;28;20041;-74
2023/10/17 07:50:54;;;;;;;7.18;3.15;;;24.60;53.80;;;;;;5053115;28;20044;-74
2023/10/17 07:53:20;;;;;;;3.20;2.03;;;24.70;53.90;;;;;;5069499;28;20056;-77
2023/10/17 07:55:52;;;;;;;4.90;2.55;;;24.60;53.80;;;;;;5069746;28;20508;-76
2023/10/17 08:01:17;;;;;;;3.83;2.75;;;24.80;53.70;;;;;;5029520;28;20092;-72
2023/10/17 08:03:54;;;;;;;6.47;3.17;;;24.60;53.50;;;;;;5028330;28;20030;-74
2023/10/17 08:06:22;;;;;;;4.43;3.00;;;24.70;53.60;;;;;;5012887;28;20508;-70
2023/10/17 08:08:50;;;;;;;5.40;3.85;;;24.80;53.50;;;;;;5029033;28;20114;-69
2023/10/17 08:11:28;;;;;;;4.38;3.00;;;24.70;53.50;;;;;;5028871;28;20054;-69
2023/10/17 08:14:06;;;;;;;8.18;3.65;;;24.80;53.60;;;;;;5028683;28;20033;-69
2023/10/17 08:16:32;;;;;;;6.05;3.08;;;24.70;53.50;;;;;;5028575;28;20044;-68
2023/10/17 08:19:12;;;;;;;7.63;3.40;;;24.80;53.60;;;;;;5028831;28;20025;-70
2023/10/17 08:24:26;;;;;;;7.13;1.90;;;24.60;53.70;;;;;;5011605;28;20056;-67
2023/10/17 08:27:17;;;;;;;2.00;1.60;;;24.70;50.10;;;;;;5028705;28;20060;-69
2023/10/17 08:29:48;;;;;;;5.75;2.53;;;24.70;54.50;;;;;;5011851;28;20143;-69
2023/10/17 08:35:09;;;;;;;3.72;2.17;;;25.60;54.10;;;;;;4989185;28;20576;-67
2023/10/17 08:37:44;;;;;;;5.80;2.30;;;25.50;46.80;;;;;;5004570;28;20042;-67
2023/10/17 08:40:31;;;;;;;4.82;2.08;;;25.60;47.00;;;;;;4992019;28;20622;-67
2023/10/17 08:43:06;;;;;;;14.65;3.53;;;25.40;46.80;;;;;;5026224;28;20457;-68
2023/10/17 08:45:38;;;;;;;24.98;5.93;;;25.40;51.10;;;;;;5028693;28;20176;-66
2023/10/17 08:48:11;;;;;;;7.90;3.42;;;25.60;50.50;;;;;;5028519;28;20115;-66
2023/10/17 08:50:39;;;;;;;5.15;2.80;;;25.60;51.10;;;;;;5028787;28;20065;-68
2023/10/17 08:53:23;;;;;;;7.13;2.85;;;25.70;47.50;;;;;;5028357;28;20041;-66
2023/10/17 08:55:50;;;;;;;7.95;2.85;;;25.70;45.90;;;;;;5028334;28;20037;-68
2023/10/17 09:01:18;;;;;;;15.20;7.18;;;25.90;44.30;;;;;;4988652;28;20117;-71
2023/10/17 09:03:46;;;;;;;14.73;6.07;;;26.00;42.40;;;;;;4989529;28;20047;-72
2023/10/17 09:09:17;;;;;;;6.63;3.80;;;26.00;44.40;;;;;;4989205;28;20171;-70
2023/10/17 09:12:01;;;;;;;11.85;4.63;;;26.10;43.20;;;;;;4985225;28;20432;-67
2023/10/17 09:14:35;;;;;;;9.93;4.05;;;26.00;44.30;;;;;;5028145;28;20041;-67
2023/10/17 09:20:11;;;;;;;10.15;4.03;;;26.20;43.50;;;;;;4972628;28;20050;-68
2023/10/17 09:22:40;;;;;;;8.50;3.97;;;26.20;42.20;;;;;;4957076;28;20031;-70
2023/10/17 09:25:26;;;;;;;11.05;3.42;;;26.20;40.50;;;;;;4969853;28;20038;-69
2023/10/17 09:27:56;;;;;;;7.22;3.28;;;26.20;42.40;;;;;;4973092;28;20103;-71
2023/10/17 09:30:26;;;;;;;8.00;3.35;;;26.20;40.20;;;;;;4953695;28;20043;-69
2023/10/17 09:32:53;;;;;;;8.15;3.17;;;26.20;42.90;;;;;;4967997;28;20074;-70
2023/10/17 09:35:19;;;;;;;9.68;4.07;;;26.30;44.90;;;;;;4960780;28;20579;-68
2023/10/17 09:37:50;;;;;;;9.40;4.40;;;26.10;44.60;;;;;;4953756;28;20134;-69
2023/10/17 09:40:22;;;;;;;8.85;4.05;;;26.30;47.40;;;;;;4954009;28;20054;-70
2023/10/17 09:42:48;;;;;;;33.97;7.18;;;26.50;49.70;;;;;;4953317;28;20076;-69
2023/10/17 09:45:17;;;;;;;74.45;23.98;;;26.40;45.70;;;;;;4937833;28;20471;-68
2023/10/17 09:47:45;;;;;;;5.28;3.35;;;26.50;45.70;;;;;;4953550;28;20055;-69
2023/10/17 09:50:13;;;;;;;10.45;3.90;;;26.50;45.20;;;;;;4953316;28;20062;-69
2023/10/17 09:52:40;;;;;;;8.57;3.53;;;26.40;45.60;;;;;;4944732;28;20042;-70
2023/10/17 09:55:10;;;;;;;7.97;3.13;;;26.50;43.30;;;;;;4934143;29;20043;-70
2023/10/17 09:57:38;;;;;;;9.93;3.42;;;26.50;43.20;;;;;;5031228;28;20044;-69
2023/10/17 10:00:37;;;;;;;6.93;3.35;;;26.40;42.10;;;;;;5031327;28;20045;-71
2023/10/17 10:03:05;;;;;;;6.00;1.98;;;26.50;41.40;;;;;;4972692;28;20049;-70
2023/10/17 10:05:32;;;;;;;3.53;2.47;;;26.50;44.50;;;;;;4972857;28;20073;-69
2023/10/17 10:08:03;;;;;;;7.63;2.35;;;26.60;46.20;;;;;;4956274;28;20553;-69
2023/10/17 10:10:53;;;;;;;4.80;2.45;;;26.50;46.60;;;;;;4956866;28;20069;-68
2023/10/17 10:13:20;;;;;;;5.97;2.47;;;26.50;47.00;;;;;;4956426;28;20066;-72
2023/10/17 10:15:58;;;;;;;3.35;2.42;;;26.50;47.40;;;;;;4972602;28;20039;-70
2023/10/17 10:18:35;;;;;;;6.43;2.83;;;26.30;47.60;;;;;;4977563;28;20027;-70
2023/10/17 10:21:02;;;;;;;4.10;2.47;;;26.30;48.20;;;;;;4959332;28;20116;-69
2023/10/17 10:23:42;;;;;;;3.67;2.30;;;26.40;48.00;;;;;;4991750;28;20034;-71
2023/10/17 10:26:11;;;;;;;4.40;3.30;;;26.30;49.40;;;;;;4966347;28;20059;-72
2023/10/17 10:28:38;;;;;;;11.93;4.18;;;26.40;45.30;;;;;;4972267;28;20085;-71
2023/10/17 10:31:22;;;;;;;13.20;4.05;;;26.60;47.80;;;;;;4972624;28;20046;-69
2023/10/17 10:33:49;;;;;;;4.35;2.53;;;26.60;48.60;;;;;;4972136;28;20042;-69
2023/10/17 10:36:23;;;;;;;4.75;2.92;;;26.50;42.70;;;;;;4966906;28;20049;-69
2023/10/17 10:38:56;;;;;;;3.60;2.05;;;26.40;43.00;;;;;;4979403;28;20097;-70
2023/10/17 10:41:25;;;;;;;;;;;26.50;43.00;;;;;;5054131;28;20072;-73
2023/10/17 10:43:58;;;;;;;3.70;2.65;;;26.30;41.30;;;;;;5062801;28;19909;-70
2023/10/17 10:46:25;;;;;;;4.47;2.35;;;26.40;44.30;;;;;;5060363;28;20033;-68
2023/10/17 10:48:53;;;;;;;3.65;1.95;;;26.40;46.90;;;;;;5052139;28;20389;-72
2023/10/17 10:51:26;;;;;;;4.13;2.10;;;26.40;46.60;;;;;;5060307;28;20157;-71
2023/10/17 10:53:56;;;;;;;5.20;2.35;;;26.40;47.90;;;;;;5055130;28;20415;-72
2023/10/17 10:56:26;;;;;;;7.05;1.88;;;26.40;48.60;;;;;;5073279;28;20032;-74
2023/10/17 10:58:57;;;;;;;3.25;2.00;;;26.40;48.40;;;;;;5072899;28;20024;-74
2023/10/17 11:01:25;;;;;;;2.10;1.85;;;26.40;48.10;;;;;;5072738;28;20068;-73
2023/10/17 11:03:52;;;;;;;3.50;2.10;;;26.40;48.00;;;;;;5072647;28;20115;-72
2023/10/17 11:06:27;;;;;;;4.18;2.40;;;26.20;47.90;;;;;;5072689;28;20040;-73
2023/10/17 11:08:56;;;;;;;4.07;2.28;;;26.20;48.00;;;;;;5072948;28;20071;-74
2023/10/17 11:11:22;;;;;;;5.40;2.28;;;26.20;48.00;;;;;;5072380;28;20089;-72
2023/10/17 11:13:50;;;;;;;2.72;1.75;;;26.30;48.10;;;;;;5049270;28;20049;-73
2023/10/17 11:16:21;;;;;;;2.60;1.45;;;26.10;48.20;;;;;;5049413;28;20539;-74
2023/10/17 11:18:48;;;;;;;3.50;2.22;;;26.20;48.20;;;;;;5046312;28;20041;-73
2023/10/17 11:21:17;;;;;;;3.63;2.47;;;26.10;48.10;;;;;;5046179;28;20067;-73
2023/10/17 11:23:51;;;;;;;2.08;1.67;;;26.20;48.10;;;;;;5029878;28;20048;-74
2023/10/17 11:26:21;;;;;;;2.28;2.00;;;26.20;48.20;;;;;;5056950;28;20127;-76
2023/10/17 11:28:51;;;;;;;4.53;2.08;;;26.10;48.30;;;;;;5058968;28;20055;-74
2023/10/17 11:31:27;;;;;;;3.10;2.33;;;26.10;48.30;;;;;;5064948;28;20040;-73
2023/10/17 11:33:55;;;;;;;3.50;2.38;;;26.20;48.40;;;;;;5061267;28;20507;-74
2023/10/17 11:36:23;;;;;;;6.57;2.42;;;26.10;48.50;;;;;;5060452;28;20139;-75
2023/10/17 11:38:58;;;;;;;3.55;2.17;;;26.00;48.60;;;;;;5032259;28;20508;-73
2023/10/17 11:41:39;;;;;;;2.85;1.60;;;26.10;48.60;;;;;;5048939;28;20041;-71
2023/10/17 11:44:06;;;;;;;5.63;1.90;;;26.10;48.60;;;;;;5049182;28;20047;-72
2023/10/17 11:46:34;;;;;;;5.32;2.53;;;26.00;48.70;;;;;;5033956;28;20036;-74
2023/10/17 11:49:26;;;;;;;3.63;2.22;;;26.00;48.80;;;;;;5050008;28;20086;-73
2023/10/17 11:52:09;;;;;;;3.00;1.60;;;26.10;48.80;;;;;;5054262;28;20097;-73
2023/10/17 11:54:55;;;;;;;3.13;2.10;;;26.10;48.80;;;;;;5050192;28;20043;-73
2023/10/17 11:57:25;;;;;;;3.67;2.20;;;26.00;48.90;;;;;;5028848;28;20128;-71
2023/10/17 11:59:58;;;;;;;3.65;2.10;;;26.00;52.10;;;;;;5028103;28;20065;-70
2023/10/17 12:02:25;;;;;;;2.28;2.00;;;26.10;49.80;;;;;;5028707;28;20112;-72
2023/10/17 12:04:52;;;;;;;3.17;2.42;;;26.00;49.50;;;;;;5012417;28;20044;-70
2023/10/17 12:07:22;;;;;;;3.40;2.15;;;26.00;49.40;;;;;;5029098;28;20041;-70
2023/10/17 12:09:50;;;;;;;4.05;2.33;;;26.00;49.40;;;;;;5028921;28;20049;-72
2023/10/17 12:12:19;;;;;;;3.65;2.38;;;26.00;49.40;;;;;;4973083;28;20046;-70
2023/10/17 12:14:45;;;;;;;4.10;2.20;;;26.00;49.40;;;;;;4988719;28;20094;-71
2023/10/17 12:17:18;;;;;;;4.35;2.47;;;26.00;49.40;;;;;;4972993;28;20039;-69
2023/10/17 12:19:44;;;;;;;3.83;1.90;;;26.00;49.50;;;;;;4989156;28;20601;-70
2023/10/17 12:22:10;;;;;;;1.70;1.60;;;25.90;49.10;;;;;;4973104;28;20129;-67
2023/10/17 12:24:36;;;;;;;4.30;3.13;;;26.00;49.70;;;;;;4990601;28;20054;-68
2023/10/17 12:27:02;;;;;;;3.05;2.40;;;25.80;50.60;;;;;;5008899;28;20525;-69
2023/10/17 12:29:29;;;;;;;4.60;3.13;;;26.00;52.60;;;;;;5009052;28;20069;-68
2023/10/17 12:32:01;;;;;;;3.65;2.35;;;25.90;53.40;;;;;;5008186;28;20157;-69
2023/10/17 12:34:28;;;;;;;4.00;2.47;;;25.90;52.60;;;;;;5026222;28;20048;-68
2023/10/17 12:36:54;;;;;;;3.67;2.58;;;26.00;52.60;;;;;;5047943;28;20099;-69
2023/10/17 12:39:21;;;;;;;5.75;2.63;;;25.90;51.70;;;;;;5048634;28;20139;-68
2023/10/17 12:41:47;;;;;;;3.70;2.03;;;25.80;51.40;;;;;;5048649;28;20036;-68
2023/10/17 12:44:13;;;;;;;7.53;2.33;;;25.80;51.00;;;;;;5064550;28;20060;-69
2023/10/17 12:46:40;;;;;;;3.20;2.25;;;25.80;50.80;;;;;;5068642;28;20032;-68
2023/10/17 12:49:10;;;;;;;4.50;2.72;;;25.80;50.60;;;;;;5050753;28;20273;-69
2023/10/17 12:51:41;;;;;;;3.60;2.30;;;25.90;50.50;;;;;;5049202;28;20449;-68
2023/10/17 12:54:08;;;;;;;3.67;2.17;;;25.80;50.40;;;;;;5050821;28;20493;-69
2023/10/17 12:56:39;;;;;;;4.75;2.70;;;25.70;50.40;;;;;;5050973;28;20096;-68
2023/10/17 12:59:11;;;;;;;4.35;2.33;;;25.70;50.30;;;;;;5050856;28;20122;-68
2023/10/17 13:01:37;;;;;;;2.65;2.00;;;25.80;50.30;;;;;;5049660;28;20063;-68
2023/10/17 13:04:04;;;;;;;4.53;2.13;;;25.80;50.30;;;;;;5050472;28;20044;-69
2023/10/17 13:06:30;;;;;;;4.13;2.05;;;25.90;50.30;;;;;;5050976;28;20048;-69
2023/10/17 13:08:56;;;;;;;4.03;2.53;;;25.90;50.30;;;;;;5050817;28;20071;-69
2023/10/17 13:11:27;;;;;;;4.07;2.42;;;25.70;50.20;;;;;;5050714;28;20025;-68
2023/10/17 13:13:57;;;;;;;3.38;2.35;;;25.70;50.20;;;;;;5050563;28;20124;-69
2023/10/17 13:16:26;;;;;;;3.80;2.60;;;25.70;50.20;;;;;;5050649;28;20039;-69
2023/10/17 13:18:56;;;;;;;3.65;3.10;;;25.70;50.20;;;;;;5050379;28;20032;-69
2023/10/17 13:21:23;;;;;;;2.95;2.15;;;25.70;50.20;;;;;;5063578;28;20436;-69
2023/10/17 13:23:49;;;;;;;3.90;2.70;;;25.70;50.20;;;;;;5073340;28;20037;-69
2023/10/17 13:26:19;;;;;;;3.95;2.33;;;25.70;50.20;;;;;;5087736;28;20066;-69
2023/10/17 13:28:45;;;;;;;4.85;2.60;;;25.60;50.10;;;;;;5109042;28;20036;-69
2023/10/17 13:31:14;;;;;;;5.03;2.63;;;25.70;50.10;;;;;;5092865;28;20040;-68
2023/10/17 13:33:45;;;;;;;3.50;2.22;;;25.70;50.00;;;;;;5111244;28;20124;-68
2023/10/17 13:36:11;;;;;;;4.32;2.65;;;25.60;50.00;;;;;;5111022;28;20070;-68
2023/10/17 13:38:38;;;;;;;2.70;2.08;;;25.60;50.10;;;;;;5111171;28;20122;-69
2023/10/17 13:41:06;;;;;;;2.53;1.67;;;25.60;50.10;;;;;;5110763;28;20534;-67
2023/10/17 13:43:33;;;;;;;4.78;1.80;;;25.60;50.10;;;;;;5111033;28;20035;-68
2023/10/17 13:46:00;;;;;;;3.53;1.58;;;25.50;50.10;;;;;;5092665;28;20038;-68
2023/10/17 13:48:27;;;;;;;4.43;2.20;;;25.50;50.10;;;;;;5092763;28;20092;-68
2023/10/17 13:51:01;;;;;;;3.72;1.80;;;25.50;50.20;;;;;;5110901;28;20035;-68
2023/10/17 13:53:27;;;;;;;5.38;2.42;;;25.40;50.20;;;;;;5110902;28;20024;-68
2023/10/17 13:55:54;;;;;;;3.70;2.03;;;25.40;50.30;;;;;;5110759;28;20049;-68
2023/10/17 13:58:20;;;;;;;1.50;1.38;;;25.40;50.30;;;;;;5110473;28;20031;-68
2023/10/17 14:00:51;;;;;;;2.17;1.50;;;25.40;50.40;;;;;;5092328;28;20403;-68
2023/10/17 14:03:17;;;;;;;2.35;1.77;;;25.40;50.30;;;;;;5113771;28;20055;-66
2023/10/17 14:05:49;;;;;;;2.67;1.45;;;25.40;50.40;;;;;;5079436;28;20032;-69
2023/10/17 14:08:17;;;;;;;1.75;1.38;;;25.30;50.40;;;;;;5096188;28;20045;-68
2023/10/17 14:10:46;;;;;;;2.67;1.38;;;25.40;50.40;;;;;;5112050;28;20111;-71
2023/10/17 14:13:15;;;;;;;2.58;1.35;;;25.50;50.40;;;;;;5112057;28;20035;-70
2023/10/17 14:15:41;;;;;;;1.85;1.50;;;25.40;50.50;;;;;;5111894;28;20067;-70
2023/10/17 14:18:13;;;;;;;2.60;1.95;;;25.40;50.40;;;;;;5112043;28;20034;-70
2023/10/17 14:21:04;;;;;;;1.50;1.20;;;25.30;50.20;;;;;;5111494;28;20051;-71
2023/10/17 14:23:32;;;;;;;1.98;1.75;;;25.50;49.90;;;;;;5114375;28;20047;-67
2023/10/17 14:26:09;;;;;;;3.50;1.60;;;25.30;49.60;;;;;;5113883;28;20514;-67
2023/10/17 14:28:36;;;;;;;3.08;2.15;;;25.40;49.00;;;;;;5078971;28;20143;-69
2023/10/17 14:31:05;;;;;;;2.25;1.40;;;25.40;48.40;;;;;;5113759;28;20032;-68
2023/10/17 14:33:32;;;;;;;3.30;1.98;;;25.40;47.70;;;;;;5078773;28;20055;-70
2023/10/17 14:36:11;;;;;;;1.35;1.25;;;25.40;47.20;;;;;;5095465;28;20035;-68
2023/10/17 14:38:37;;;;;;;2.78;1.83;;;25.30;46.90;;;;;;5091253;28;20140;-71
2023/10/17 14:41:11;;;;;;;3.25;1.95;;;25.30;46.40;;;;;;5095435;28;20114;-72
2023/10/17 14:43:46;;;;;;;3.40;2.22;;;25.30;46.00;;;;;;5086552;28;20089;-69
2023/10/17 14:46:16;;;;;;;2.80;2.00;;;25.30;46.60;;;;;;5095382;28;20440;-70
2023/10/17 14:48:44;;;;;;;9.75;3.42;;;25.60;47.40;;;;;;5075149;28;20071;-68
2023/10/17 14:51:14;;;;;;;5.63;3.13;;;25.90;52.10;;;;;;5075205;28;20028;-69
2023/10/17 14:53:44;;;;;;;4.50;2.10;;;26.10;44.40;;;;;;5093398;28;20333;-73
2023/10/17 14:56:13;;;;;;;2.95;1.80;;;25.90;47.30;;;;;;5102316;28;20063;-73
2023/10/17 14:58:46;;;;;;;5.28;2.33;;;25.70;46.10;;;;;;5113315;28;20059;-73
2023/10/17 15:01:12;;;;;;;5.82;2.40;;;25.80;47.00;;;;;;5113605;28;20027;-70
2023/10/17 15:03:39;;;;;;;3.22;1.67;;;25.70;46.70;;;;;;5070136;28;20543;-73
2023/10/17 15:06:09;;;;;;;4.07;2.03;;;25.80;46.30;;;;;;5069838;28;20082;-69
2023/10/17 15:08:36;;;;;;;3.50;2.30;;;25.70;46.50;;;;;;5070170;28;20064;-69
2023/10/17 15:11:04;;;;;;;4.50;2.55;;;25.70;45.60;;;;;;5069960;28;20472;-69
2023/10/17 15:13:32;;;;;;;23.88;16.38;;;25.90;46.00;;;;;;5051967;28;20047;-69
2023/10/17 15:15:59;;;;;;;11.55;8.30;;;25.90;46.70;;;;;;5070090;28;20090;-68
2023/10/17 15:18:26;;;;;;;6.32;4.20;;;26.10;47.50;;;;;;5036362;28;20047;-70
2023/10/17 15:21:03;;;;;;;5.10;3.03;;;26.00;48.00;;;;;;5070046;28;20048;-69
2023/10/17 15:23:29;;;;;;;6.10;2.40;;;26.00;48.40;;;;;;5069748;28;20072;-71
2023/10/17 15:25:56;;;;;;;4.30;2.00;;;26.00;49.10;;;;;;5069529;28;20082;-71
2023/10/17 15:28:22;;;;;;;4.82;2.05;;;26.00;48.60;;;;;;5069629;28;20101;-73